Hamilton, AL (35570)

10:24 AM CDT on July 28, 2015 (GMT -0500)
APRSWXNET | | Change Station
CLOSE
Current Station
Personal Weather Station
Location: Hamilton, AL
Elevation: 633 ft
Nearby Weather Stations

Elev 633 ft 34.15 °N, 88.03 °W | Updated 16 minutes ago

Clear
Clear
88 °F
Feels Like 104 °F
N
0
Wind Variable Wind from West
Gusts 0.0 mph

Today
High -- | Low -- °F
--% Chance of Precip.
Yesterday
High -- | Low -- °F
Precip. -- in
5:59 AM 7:56 PM
Waxing Gibbous, 90% visible
Pressure 30.11 in
Visibility 10.0 miles
Clouds Clear
Heat Index 104 °F
Dew Point 79 °F
Humidity 76%
Rainfall in
Snow Depth Not available.
UV 7 out of 12
Pollen 3.60 out of 12
Air Quality Not available.
Flu Activity Not available.
METAR K1M4 281456Z AUTO 00000KT 10SM CLR 31/25 A3007 RMK AO2 50006 T03110250 SLP194

More Conditions Fewer Conditions

Pressure 30.11 in
Visibility 10.0 miles
Clouds Clear
Heat Index 104 °F
Dew Point 79 °F
Humidity 76%
Rainfall in
Snow Depth Not available.
UV 7 out of 12
Pollen 3.60 out of 12
Air Quality Not available.
Flu Activity Not available.
METAR K1M4 281456Z AUTO 00000KT 10SM CLR 31/25 A3007 RMK AO2 50006 T03110250 SLP194

More Conditions Fewer Conditions

10-Day Weather Forecast

×

Almanac

Astronomy

Jul. 28, 2015 Rise Set
Actual Time
Civil Twilight
Nautical Twilight
Astronomical Twilight
Moon
Length of Visible Light
Length of Day
Tomorrow will be .
, % of the Moon is Illuminated

Today's Extremes

State Highs State Lows

Community

WunderPhotos

Upload Photos

1,841,852 photos uploaded!

WunderBlogs® & News

Nearby

Air Quality

  Air Quality AQ Index Pollutant
Not available.

Snow Depth

Station Depth Elevation

Earthquake Activity

City Distance Mag. Time & Date
Minimum magnitude displayed is 2.5.

Coastal Water Temperatures

Place Temperature

Stations

Nearby Weather Stations

Station Location Temp. Windchill Dew Point Humidity Wind Precip. Elev Updated Type